createdAt,value
2017-03-10T00:00:03.765Z,99.99
2017-03-10T00:05:03.060Z,99.99
2017-03-10T00:10:02.925Z,99.99
2017-03-10T00:15:02.905Z,99.99
2017-03-10T00:20:02.985Z,99.99
2017-03-10T00:25:03.744Z,99.99
2017-03-10T00:30:03.634Z,99.99
2017-03-10T00:35:03.533Z,99.99
2017-03-10T00:40:03.710Z,99.99
2017-03-10T00:45:03.545Z,99.99
2017-03-10T00:50:03.469Z,99.99
2017-03-10T00:55:03.353Z,99.99
2017-03-10T01:00:03.273Z,99.99
2017-03-10T01:05:02.916Z,99.99
2017-03-10T01:10:02.974Z,99.99
2017-03-10T01:15:03.699Z,99.99
2017-03-10T01:20:03.656Z,99.99
2017-03-10T01:25:03.500Z,99.99
2017-03-10T01:30:03.385Z,99.99
2017-03-10T01:35:03.430Z,99.99
2017-03-10T01:40:03.331Z,99.99
2017-03-10T01:45:03.198Z,99.99
2017-03-10T01:50:03.335Z,99.99
2017-03-10T01:55:03.274Z,99.99
2017-03-10T02:00:03.036Z,99.99
2017-03-10T02:05:02.949Z,99.99
2017-03-10T02:10:02.954Z,99.99
2017-03-10T02:15:02.915Z,99.99
2017-03-10T02:20:03.045Z,99.99
2017-03-10T02:25:03.127Z,99.99
2017-03-10T02:30:03.003Z,99.99
2017-03-10T02:35:03.804Z,99.99
2017-03-10T02:40:03.584Z,99.99
2017-03-10T02:45:03.416Z,99.99
2017-03-10T02:50:03.255Z,99.99
2017-03-10T02:55:03.184Z,99.99
2017-03-10T03:00:02.995Z,99.99
2017-03-10T03:05:02.884Z,99.99
2017-03-10T03:10:03.702Z,99.99
2017-03-10T03:15:03.444Z,99.99
2017-03-10T03:20:03.247Z,99.99
2017-03-10T03:25:03.038Z,99.99
2017-03-10T03:30:02.877Z,99.99
2017-03-10T03:35:09.845Z,99.99
2017-03-10T03:40:03.724Z,99.99
2017-03-10T03:45:03.562Z,99.99
2017-03-10T03:50:03.536Z,99.99
2017-03-10T03:55:03.430Z,99.99
2017-03-10T04:00:03.205Z,99.99
2017-03-10T04:05:03.139Z,99.99
2017-03-10T04:10:03.332Z,99.99
2017-03-10T04:15:03.254Z,99.99
2017-03-10T04:20:03.167Z,99.99
2017-03-10T04:25:03.032Z,99.99
2017-03-10T04:30:02.983Z,99.99
2017-03-10T04:35:02.944Z,99.99
2017-03-10T04:40:02.805Z,99.99
2017-03-10T04:45:03.691Z,99.99
2017-03-10T04:50:03.496Z,99.99
2017-03-10T04:55:03.564Z,99.99
2017-03-10T05:00:03.756Z,99.99
2017-03-10T05:05:02.943Z,99.99
2017-03-10T05:10:02.853Z,99.99
2017-03-10T05:15:03.690Z,99.99
2017-03-10T05:20:05.115Z,99.99
2017-03-10T05:25:03.017Z,99.99
2017-03-10T05:30:03.007Z,99.99
2017-03-10T05:35:03.104Z,99.99
2017-03-10T05:40:03.024Z,99.99
2017-03-10T05:45:02.787Z,99.99
2017-03-10T05:50:02.867Z,99.99
2017-03-10T05:55:04.492Z,99.99
2017-03-10T06:00:03.512Z,99.99
2017-03-10T06:05:03.666Z,99.99
2017-03-10T06:10:03.608Z,99.99
2017-03-10T06:15:02.960Z,99.99
2017-03-10T06:20:03.801Z,99.99
2017-03-10T06:25:02.799Z,99.99
2017-03-10T06:30:03.806Z,99.99
2017-03-10T06:35:03.751Z,99.99
2017-03-10T06:40:03.662Z,99.99
2017-03-10T06:45:03.519Z,99.99
2017-03-10T06:50:03.389Z,99.99
2017-03-10T06:55:03.215Z,99.99
2017-03-10T07:00:02.980Z,99.99
2017-03-10T07:05:02.908Z,99.99
2017-03-10T07:10:03.825Z,99.99
2017-03-10T07:15:02.784Z,99.99
2017-03-10T07:20:03.580Z,99.99
2017-03-10T07:25:03.759Z,99.99
2017-03-10T07:30:03.514Z,99.99
2017-03-10T07:35:03.408Z,99.99
2017-03-10T07:40:03.319Z,99.99
2017-03-10T07:45:03.095Z,99.99
2017-03-10T07:50:02.920Z,99.99
2017-03-10T07:55:02.849Z,99.99
2017-03-10T08:00:02.843Z,99.99
2017-03-10T08:05:03.819Z,99.99
2017-03-10T08:10:02.909Z,99.99
2017-03-10T08:15:02.914Z,99.99
2017-03-10T08:20:02.647Z,99.99
2017-03-10T08:25:03.266Z,99.99
2017-03-10T08:30:03.626Z,99.99
2017-03-10T08:35:03.640Z,99.99
2017-03-10T08:40:02.838Z,99.99
2017-03-10T08:45:03.748Z,99.99
2017-03-10T08:50:02.861Z,99.99
2017-03-10T08:55:03.631Z,99.99
2017-03-10T09:00:03.591Z,99.99
2017-03-10T09:05:03.483Z,99.99
2017-03-10T09:10:03.296Z,99.99
2017-03-10T09:15:03.094Z,99.99
2017-03-10T09:20:02.976Z,99.99
2017-03-10T09:25:03.117Z,99.99
2017-03-10T09:30:02.964Z,99.99
2017-03-10T09:35:02.996Z,99.99
2017-03-10T09:40:03.564Z,99.99
2017-03-10T09:45:03.615Z,99.99
2017-03-10T09:50:03.509Z,99.99
2017-03-10T09:55:03.434Z,99.99
2017-03-10T10:00:03.522Z,99.99
2017-03-10T10:05:03.638Z,99.99
2017-03-10T10:10:03.479Z,99.99
2017-03-10T10:15:03.346Z,99.99
2017-03-10T10:20:03.190Z,99.99
2017-03-10T10:25:03.130Z,99.99
2017-03-10T10:30:03.015Z,98.57
2017-03-10T10:35:02.852Z,95.89
2017-03-10T10:40:03.708Z,98.47
2017-03-10T10:45:03.682Z,99
2017-03-10T10:50:03.517Z,99.99
2017-03-10T10:55:03.527Z,97.42
2017-03-10T11:00:03.415Z,96.42
2017-03-10T11:05:03.456Z,95.07
2017-03-10T11:10:03.472Z,91.25
2017-03-10T11:15:03.311Z,94.93
2017-03-10T11:20:03.208Z,93.74
2017-03-10T11:25:03.093Z,91.83
2017-03-10T11:30:03.209Z,93.21
2017-03-10T11:35:03.005Z,88.51
2017-03-10T11:40:03.181Z,83.56
2017-03-10T11:45:02.918Z,82.98
2017-03-10T11:50:02.796Z,79.09
2017-03-10T11:55:03.672Z,78.99
2017-03-10T12:00:03.695Z,75.32
2017-03-10T12:05:03.520Z,73.69
2017-03-10T12:10:03.436Z,74.19
2017-03-10T12:15:03.393Z,71.56
2017-03-10T12:20:03.456Z,66.42
2017-03-10T12:25:03.257Z,68.54
2017-03-10T12:30:03.129Z,69.31
2017-03-10T12:35:03.077Z,70.07
2017-03-10T12:40:03.273Z,70.76
2017-03-10T12:45:03.015Z,71.84
2017-03-10T12:50:03.657Z,73.95
2017-03-10T12:55:03.554Z,73.03
2017-03-10T13:00:03.573Z,72.43
2017-03-10T13:05:03.499Z,71.02
2017-03-10T13:10:03.406Z,71.92
2017-03-10T13:15:03.339Z,70.96
2017-03-10T13:20:03.367Z,71.78
2017-03-10T13:25:03.157Z,72.52
2017-03-10T13:30:03.157Z,72.58
2017-03-10T13:35:03.352Z,72.27
2017-03-10T13:40:03.208Z,71.21
2017-03-10T13:45:02.987Z,71.11
2017-03-10T13:50:03.784Z,70.38
2017-03-10T13:55:03.612Z,71.4
2017-03-10T14:00:03.454Z,71.17
2017-03-10T14:05:03.283Z,71.84
2017-03-10T14:10:03.472Z,71.84
2017-03-10T14:15:03.672Z,72.06
2017-03-10T14:20:03.499Z,73.88
2017-03-10T14:25:03.373Z,73.88
2017-03-10T14:30:03.343Z,73.55
2017-03-10T14:35:03.172Z,74.09
2017-03-10T14:40:03.222Z,76.25
2017-03-10T14:45:02.940Z,75.62
2017-03-10T14:50:03.663Z,75.74
2017-03-10T14:55:02.928Z,77.36
2017-03-10T15:00:03.773Z,78.09
2017-03-10T15:05:03.638Z,78.47
2017-03-10T15:10:03.482Z,79.38
2017-03-10T15:15:03.192Z,79.38
2017-03-10T15:20:03.074Z,79.61
2017-03-10T15:25:02.776Z,79.04
2017-03-10T15:30:03.473Z,79.46
2017-03-10T15:35:03.135Z,78.74
2017-03-10T15:40:03.020Z,77.87
2017-03-10T15:45:03.235Z,77.15
2017-03-10T15:50:03.084Z,76.35
2017-03-10T15:55:03.177Z,76.86
2017-03-10T16:00:03.261Z,76.96
2017-03-10T16:05:03.037Z,76.29
2017-03-10T16:10:03.034Z,75.05
2017-03-10T16:15:03.165Z,75.01
2017-03-10T16:20:02.971Z,76.4
2017-03-10T16:25:02.972Z,77.42
2017-03-10T16:30:03.739Z,78.81
2017-03-10T16:35:03.575Z,79.19
2017-03-10T16:40:03.710Z,79.48
2017-03-10T16:45:03.601Z,79.77
2017-03-10T16:50:03.263Z,80.77
2017-03-10T16:55:02.986Z,81.54
2017-03-10T17:00:03.665Z,81.88
2017-03-10T17:05:03.709Z,83.5
2017-03-10T17:10:03.628Z,84.83
2017-03-10T17:15:03.445Z,85.5
2017-03-10T17:20:03.642Z,85.69
2017-03-10T17:25:03.448Z,85.46
2017-03-10T17:30:03.332Z,85.93
2017-03-10T17:35:03.372Z,86.88
2017-03-10T17:40:03.224Z,87.6
2017-03-10T17:45:02.906Z,88.08
2017-03-10T17:50:03.695Z,88.93
2017-03-10T17:55:03.515Z,89.89
2017-03-10T18:00:03.289Z,90.32
2017-03-10T18:05:03.068Z,91.75
2017-03-10T18:10:03.228Z,92.89
2017-03-10T18:15:03.397Z,94.89
2017-03-10T18:20:03.272Z,95.17
2017-03-10T18:25:03.329Z,95.22
2017-03-10T18:30:03.405Z,95.89
2017-03-10T18:35:03.207Z,96.94
2017-03-10T18:40:03.100Z,97.88
2017-03-10T18:45:02.946Z,99.12
2017-03-10T18:50:02.852Z,99.41
2017-03-10T18:55:03.683Z,99.84
2017-03-10T19:00:03.483Z,99.99
2017-03-10T19:05:03.304Z,99.99
2017-03-10T19:10:03.530Z,99.99
2017-03-10T19:15:03.314Z,99.99
2017-03-10T19:20:03.167Z,99.99
2017-03-10T19:25:02.987Z,99.99
2017-03-10T19:30:02.878Z,99.99
2017-03-10T19:35:03.535Z,99.99
2017-03-10T19:40:03.267Z,99.99
2017-03-10T19:45:03.131Z,99.99
2017-03-10T19:50:02.758Z,99.99
2017-03-10T19:55:03.616Z,99.99
2017-03-10T20:00:03.527Z,99.99
2017-03-10T20:05:03.424Z,99.99
2017-03-10T20:10:03.270Z,99.99
2017-03-10T20:15:03.338Z,99.99
2017-03-10T20:20:03.149Z,99.99
2017-03-10T20:25:02.955Z,99.99
2017-03-10T20:30:03.325Z,99.99
2017-03-10T20:35:03.067Z,99.99
2017-03-10T20:40:02.824Z,99.99
2017-03-10T20:45:02.889Z,99.99
2017-03-10T20:50:03.717Z,99.99
2017-03-10T20:55:03.743Z,99.99
2017-03-10T21:00:03.570Z,99.99
2017-03-10T21:05:03.391Z,99.99
2017-03-10T21:10:03.401Z,99.99
2017-03-10T21:15:03.561Z,99.99
2017-03-10T21:20:03.552Z,99.99
2017-03-10T21:25:03.265Z,99.99
2017-03-10T21:30:03.159Z,99.99
2017-03-10T21:35:03.218Z,99.99
2017-03-10T21:40:02.952Z,99.99
2017-03-10T21:45:03.647Z,99.99
2017-03-10T21:50:03.636Z,99.99
2017-03-10T21:55:03.514Z,99.99
2017-03-10T22:00:03.702Z,99.99
2017-03-10T22:05:03.430Z,99.99
2017-03-10T22:10:03.406Z,99.99
2017-03-10T22:15:03.244Z,99.99
2017-03-10T22:20:03.077Z,99.99
2017-03-10T22:25:03.023Z,99.99
2017-03-10T22:30:03.213Z,99.99
2017-03-10T22:35:03.040Z,99.99
2017-03-10T22:40:02.907Z,99.99
2017-03-10T22:45:03.732Z,99.99
2017-03-10T22:50:03.537Z,99.99
2017-03-10T22:55:03.229Z,99.99
2017-03-10T23:00:03.201Z,99.99
2017-03-10T23:05:03.063Z,99.99
2017-03-10T23:10:02.962Z,99.99
2017-03-10T23:15:02.971Z,99.99
2017-03-10T23:20:02.960Z,99.99
2017-03-10T23:25:02.816Z,99.99
2017-03-10T23:30:03.592Z,99.99
2017-03-10T23:35:03.545Z,99.99
2017-03-10T23:40:03.325Z,99.99
2017-03-10T23:45:03.083Z,99.99
2017-03-10T23:50:04.098Z,99.99
2017-03-10T23:55:02.911Z,99.99
